»·PEaware :: N19947 KSBD-KSMO

N19947 :: KSBD-KSMO

FLIGHT INFORMATION

Flight Status: Arrived
Operator: Privately registered:
United States
More flights under this callsign
Pilot: Adam A. (5112)
Aircraft: CESSNA 172 SKYHAWK
(C172)
More flights by this aircraft type
Origin: KSBD San Bernardino Intl
United States
Destination: KSMO Santa Monica Mun
United States
More flights between these airports :: More routes between these airports
Route: +PDZ V186 DARTS
File this flight plan on PilotEdge
Remarks:
Altitude:
(Current/Filed)
6,000ft
Speed:
(Current/Filed)
120kts
Departed: 27-Apr-16 06:25 PM
Arrived: 27-Apr-16 07:09 PM
Distance/Time
Traveled:
61nm/0:43
Distance/Time
To Go:
Arrived

Flight Plot

Page will automatically refresh every two minutes.


Map Options




Map Legend


Flown Route
Filed Route
Departure Airport
Arrival Airport
Navaid (VOR, NDB)
Fix

Horizontal Profiles

Position Reports

Time Latitude Longitude Heading Altitude Ground
Speed
27-Apr-16 17:40 34.101856 -117.225272 90 1160ft 0kts
27-Apr-16 17:41 34.101856 -117.225272 90 1160ft 0kts
27-Apr-16 17:42 34.101856 -117.225272 90 1160ft 0kts
27-Apr-16 17:43 34.101856 -117.225272 90 1160ft 0kts
27-Apr-16 17:44 34.101856 -117.225272 90 1160ft 0kts
27-Apr-16 17:45 34.101856 -117.225272 90 1160ft 0kts
27-Apr-16 17:46 34.101856 -117.225272 90 1160ft 0kts
27-Apr-16 17:47 34.101856 -117.225272 90 1160ft 0kts
27-Apr-16 17:48 34.101856 -117.225272 90 1160ft 0kts
27-Apr-16 17:49 34.101856 -117.225272 90 1160ft 0kts
27-Apr-16 17:50 34.101856 -117.225272 90 1160ft 0kts
27-Apr-16 17:51 34.101856 -117.225272 90 1160ft 0kts
27-Apr-16 17:52 34.101856 -117.225272 90 1160ft 0kts
27-Apr-16 17:53 34.101856 -117.225272 90 1160ft 0kts
27-Apr-16 17:54 34.101856 -117.225272 90 1160ft 0kts
27-Apr-16 17:55 34.101856 -117.225272 90 1160ft 0kts
27-Apr-16 17:56 34.101856 -117.225272 90 1160ft 0kts
27-Apr-16 17:57 34.101856 -117.225272 90 1160ft 0kts
27-Apr-16 17:58 34.101856 -117.225272 90 1160ft 0kts
27-Apr-16 17:59 34.101856 -117.225272 90 1160ft 0kts
27-Apr-16 18:00 34.101856 -117.225272 90 1160ft 0kts
27-Apr-16 18:01 34.101856 -117.225272 90 1160ft 0kts
27-Apr-16 18:02 34.101856 -117.225272 90 1160ft 0kts
27-Apr-16 18:03 34.101856 -117.225272 90 1160ft 0kts
27-Apr-16 18:04 34.101856 -117.225272 90 1160ft 0kts
27-Apr-16 18:05 34.101856 -117.225272 90 1160ft 0kts
27-Apr-16 18:06 34.101856 -117.225272 90 1160ft 0kts
27-Apr-16 18:07 34.101856 -117.225272 90 1160ft 0kts
27-Apr-16 18:08 34.101856 -117.225272 90 1160ft 0kts
27-Apr-16 18:09 34.101856 -117.225272 90 1160ft 0kts
27-Apr-16 18:10 34.101856 -117.225272 90 1160ft 0kts
27-Apr-16 18:11 34.101856 -117.225272 90 1160ft 0kts
27-Apr-16 18:12 34.101289 -117.224331 120 1160ft 8kts
27-Apr-16 18:13 34.100734 -117.221944 69 1160ft 14kts
27-Apr-16 18:14 34.100999 -117.219469 187 1160ft 0kts
27-Apr-16 18:15 34.100945 -117.219493 207 1160ft 2kts
27-Apr-16 18:16 34.098929 -117.222823 248 1160ft 50kts
27-Apr-16 18:17 34.094009 -117.242629 251 1807ft 68kts
27-Apr-16 18:18 34.086829 -117.262449 240 2595ft 61kts
27-Apr-16 18:19 34.076313 -117.279777 226 3290ft 63kts
27-Apr-16 18:20 34.063971 -117.296819 239 3857ft 68kts
27-Apr-16 18:21 34.053190 -117.316338 241 4436ft 69kts
27-Apr-16 18:22 34.042265 -117.335822 236 4997ft 71kts
27-Apr-16 18:23 34.029490 -117.354281 236 5529ft 72kts
27-Apr-16 18:24 34.016339 -117.372730 237 6035ft 72kts
27-Apr-16 18:25 34.002954 -117.396651 241 6113ft 94kts
27-Apr-16 18:26 33.988600 -117.423575 238 6111ft 98kts
27-Apr-16 18:27 33.973092 -117.451089 254 5959ft 98kts
27-Apr-16 18:28 33.975117 -117.483108 274 5924ft 93kts
27-Apr-16 18:29 33.978210 -117.514186 272 5893ft 93kts
27-Apr-16 18:30 33.980483 -117.544600 274 5900ft 93kts
27-Apr-16 18:31 33.982611 -117.573923 274 5932ft 92kts
27-Apr-16 18:32 33.986331 -117.603800 280 5990ft 87kts
27-Apr-16 18:33 33.989182 -117.632135 273 6073ft 85kts
27-Apr-16 18:34 33.991051 -117.658185 272 6096ft 87kts
27-Apr-16 18:35 33.992801 -117.687691 273 6138ft 84kts
27-Apr-16 18:36 33.996268 -117.717777 271 6101ft 89kts
27-Apr-16 18:37 33.998277 -117.750710 271 5993ft 107kts
27-Apr-16 18:38 34.009399 -117.783826 294 6029ft 111kts
27-Apr-16 18:39 34.022737 -117.817319 289 6001ft 113kts
27-Apr-16 18:40 34.033098 -117.851308 280 6058ft 110kts
27-Apr-16 18:41 34.042918 -117.886803 284 5963ft 114kts
27-Apr-16 18:42 34.053852 -117.921838 291 5965ft 112kts
27-Apr-16 18:43 34.066758 -117.955352 282 6011ft 108kts
27-Apr-16 18:44 34.074100 -117.990472 274 6009ft 110kts
27-Apr-16 18:45 34.078167 -118.026403 284 6065ft 106kts
27-Apr-16 18:46 34.090503 -118.060765 297 5988ft 114kts
27-Apr-16 18:47 34.102662 -118.093747 277 6075ft 108kts
27-Apr-16 18:48 34.111503 -118.130071 291 5655ft 122kts
27-Apr-16 18:49 34.127066 -118.165326 284 5001ft 123kts
27-Apr-16 18:50 34.138613 -118.202276 284 4436ft 117kts
27-Apr-16 18:51 34.148776 -118.239150 262 3887ft 113kts
27-Apr-16 18:52 34.138429 -118.274636 242 3788ft 108kts
27-Apr-16 18:53 34.129268 -118.306776 245 4081ft 100kts
27-Apr-16 18:54 34.111877 -118.333509 210 3719ft 106kts
27-Apr-16 18:55 34.089575 -118.355694 217 3101ft 104kts
27-Apr-16 18:56 34.069045 -118.379667 230 2412ft 97kts
27-Apr-16 18:57 34.052792 -118.405333 219 1463ft 97kts
27-Apr-16 18:58 34.036431 -118.423076 230 1163ft 64kts
27-Apr-16 18:59 34.027412 -118.437527 216 647ft 51kts
27-Apr-16 19:00 34.019393 -118.447163 216 180ft 36kts
27-Apr-16 19:01 34.008606 -118.459746 220 673ft 61kts
27-Apr-16 19:02 33.999407 -118.443701 41 1383ft 98kts
27-Apr-16 19:03 34.020196 -118.422975 44 1456ft 79kts
27-Apr-16 19:04 34.032623 -118.431691 220 805ft 61kts
27-Apr-16 19:05 34.022354 -118.443676 222 291ft 46kts
27-Apr-16 19:06 34.013096 -118.455060 227 479ft 61kts
27-Apr-16 19:07 34.002088 -118.452544 87 1245ft 95kts
27-Apr-16 19:08 34.020963 -118.427487 28 1437ft 88kts
27-Apr-16 19:09 34.025559 -118.439913 236 557ft 57kts
27-Apr-16 19:10 34.018892 -118.448544 306 179ft 0kts
27-Apr-16 19:11 34.018054 -118.449777 223 179ft 15kts
27-Apr-16 19:12 34.016675 -118.452518 256 179ft 7kts
27-Apr-16 19:13 34.015910 -118.453016 136 179ft 0kts
27-Apr-16 19:14 34.015910 -118.453016 136 179ft 0kts

Navigation Log

Ident Type
Flight plan parsing failed, navigation log unavailable